• Join FlightAware (Why Join?)
  • Login
  • US Flag 
04:04PM EDT


 

Airport Tracker/Info


-or-


 

Live Flight TrackerFlight Track Log ✈ DAL1562 ✈ 19-Apr-2013 ✈ KPHL - KDTW

Flight Track Log - Related Links

Times and Time Zones

All times are in EDT time to prevent confusion due to time zone crossing. See the DAL1562 flight status page for this flight to view local times or setup timezone preferences in your user account.

Time Position Orientation Groundspeed Altitude Reporting Facility
EDT Latitude Longitude Course Direction KTS MPH feet Rate Location/Type
11:50PM 39.8667 -75.2667 270° West 138 159 700  Level Philadelphia TRACON
11:51PM 39.8525 -75.2922 234° Southwest 170 196 1,400 1,560 Climbing FAA TRACON SMA TRACON (SMA)
11:51PM 39.8428 -75.3119 237° Southwest 200 230 1,900 1,800 Climbing FAA TRACON SMA TRACON (SMA)
11:51PM 39.8328 -75.3347 240° Southwest 238 274 2,600 3,000 Climbing FAA TRACON SMA TRACON (SMA)
11:52PM 39.8256 -75.3600 250° West 246 283 3,900 4,500 Climbing FAA TRACON SMA TRACON (SMA)
11:52PM 39.8269 -75.3911 273° West 227 261 5,600 4,020 Climbing FAA TRACON SMA TRACON (SMA)
11:52PM 39.8300 -75.4169 279° West 227 261 6,600 2,820 Climbing FAA TRACON SMA TRACON (SMA)
11:53PM 39.9071 -75.6476 303° West  Level FlightAware Approximate
11:53PM 39.8328 -75.4431 278° West 234 269 7,500  Level FAA TRACON SMA TRACON (SMA)
11:53PM 39.8378 -75.4744 282° West 238 274 8,700 3,360 Climbing FAA TRACON SMA TRACON (SMA)
11:53PM 39.8397 -75.5017 275° West 238 274 9,700 2,520 Climbing FAA TRACON SMA TRACON (SMA)
11:54PM 39.9000 -75.7842 270° West  Level FlightAware Approximate
11:54PM 39.8417 -75.5286 275° West 241 277 10,400  Level FAA TRACON SMA TRACON (SMA)
11:54PM 39.8447 -75.5628 277° West 266 306 10,800 1,200 Climbing FAA TRACON SMA TRACON (SMA)
11:54PM 39.8469 -75.5972 275° West 296 341 11,200 1,320 Climbing FAA TRACON SMA TRACON (SMA)
11:55PM 39.9000 -75.9269 270° West  Level FlightAware Approximate
11:55PM 39.8517 -75.6325 280° West 311 358 11,700  Level FAA TRACON SMA TRACON (SMA)
11:55PM 39.8553 -75.6756 276° West 320 368 12,000 1,020 Climbing FAA TRACON SMA TRACON (SMA)
11:55PM 39.8592 -75.7119 278° West 322 371 12,400 1,920 Climbing FAA TRACON SMA TRACON (SMA)
11:56PM 39.8633 -75.7478 279° West 323 372 13,300 2,400 Climbing FAA TRACON SMA TRACON (SMA)
11:56PM 39.8661 -75.7886 275° West 324 373 14,000 2,100 Climbing FAA TRACON SMA TRACON (SMA)
11:56PM 39.8711 -75.8289 279° West 330 380 14,700 2,400 Climbing FAA TRACON SMA TRACON (SMA)
11:57PM 39.8753 -75.8675 278° West 341 392 15,600 3,000 Climbing FAA TRACON SMA TRACON (SMA)
11:57PM 39.8792 -75.9119 277° West 345 397 16,700 3,420 Climbing FAA TRACON SMA TRACON (SMA)
11:57PM 39.8844 -75.9522 280° West 334 384 17,900 2,460 Climbing FAA TRACON SMA TRACON (SMA)
11:58PM 39.8850 -75.9611 275° West 332 382 18,300 1,680 Climbing FAA TRACON SMA TRACON (SMA)
12:00AM 39.9103 -76.2703 276° West 336 387 22,500 1,560 Climbing New York Center
12:01AM 39.9147 -76.3978 273° West 343 395 23,600 1,140 Climbing New York Center
12:02AM 39.9208 -76.5283 274° West 365 420 24,800 1,200 Climbing New York Center
12:03AM 39.9264 -76.6667 273° West 375 432 26,100 1,200 Climbing New York Center
12:04AM 39.9486 -76.8067 282° West 386 444 27,200 960 Climbing New York Center
12:05AM 39.9767 -76.9500 284° West 398 458 28,100 900 Climbing New York Center
12:06AM 40.0042 -77.1017 283° West 411 473 29,100 960 Climbing New York Center
12:07AM 40.0314 -77.2506 283° West 424 488 30,000 420 Climbing New York Center
12:08AM 40.0586 -77.3969 284° West 424 488 30,000  Level New York Center
12:09AM 40.0839 -77.5431 283° West 424 488 30,100 600 Climbing New York Center
12:10AM 40.1236 -77.7458 284° West 411 473 31,500 780 Climbing Cleveland Center
12:11AM 40.1375 -77.8917 277° West 417 480 32,000 240 Climbing Cleveland Center
12:12AM 40.1389 -78.0383 271° West 406 467 32,000  Level Cleveland Center
12:13AM 40.1397 -78.1797 270° West 396 456 32,000  Level Cleveland Center
12:14AM 40.1469 -78.3233 274° West 396 456 32,000  Level Cleveland Center
12:15AM 40.1767 -78.4692 285° West 403 464 32,000  Level Cleveland Center
12:16AM 40.2086 -78.6122 286° West 409 471 32,000  Level Cleveland Center
12:17AM 40.2422 -78.7553 287° West 409 471 32,000  Level Cleveland Center
12:18AM 40.2736 -78.8958 286° West 415 478 32,000  Level Cleveland Center
12:19AM 40.3047 -79.0394 286° West 415 478 32,000  Level Cleveland Center
12:20AM 40.3381 -79.1831 287° West 415 478 32,000  Level Cleveland Center
12:21AM 40.3642 -79.2969 287° West 415 478 32,000  Level Cleveland Center
12:22AM 40.3992 -79.4544 286° West 415 478 32,000  Level Cleveland Center
12:23AM 40.4319 -79.6011 286° West 415 478 32,000  Level Cleveland Center
12:24AM 40.4622 -79.7425 286° West 410 472 32,000  Level Cleveland Center
12:25AM 40.4922 -79.8786 286° West 404 465 32,000  Level Cleveland Center
12:26AM 40.5203 -80.0342 283° West 398 458 32,000  Level Cleveland Center
12:27AM 40.5522 -80.1733 287° West 398 458 32,000  Level Cleveland Center
12:28AM 40.5817 -80.3125 286° West 398 458 32,000  Level Cleveland Center
12:29AM 40.6133 -80.4519 287° West 398 458 32,000  Level Cleveland Center
12:30AM 40.6406 -80.5914 284° West 393 452 32,000  Level Cleveland Center
12:31AM 40.6717 -80.7200 288° West 393 452 32,000  Level Cleveland Center
12:32AM 40.7297 -80.8544 300° West 401 461 32,000  Level Cleveland Center
12:33AM 40.7981 -80.9808 306° West 412 474 32,000  Level Cleveland Center
12:34AM 40.8747 -81.1131 308° West 442 509 32,000  Level Cleveland Center
12:35AM 40.9533 -81.2403 309° West 455 524 32,000  Level Cleveland Center
12:36AM 41.0214 -81.3536 309° West 455 524 32,000  Level Cleveland Center
12:37AM 41.0997 -81.4814 309° West 439 505 32,000  Level Cleveland Center
12:38AM 41.1839 -81.6150 310° West 439 505 32,000 -180 Level Cleveland Center
12:39AM 41.2600 -81.7433 308° West 439 505 31,700 -900 Descending Cleveland Center
12:40AM 41.3356 -81.8692 309° West 439 505 30,200 -2,160 Descending Cleveland Center
12:41AM 41.4114 -81.9978 308° West 439 505 27,400 -2,580 Descending Cleveland Center
12:42AM 41.4847 -82.1214 308° West 439 505 25,100 -2,400 Descending Cleveland Center
12:43AM 41.5539 -82.2397 308° West 424 488 22,700 -2,220 Descending Cleveland Center
12:44AM 41.6169 -82.3442 309° West 413 475 20,700 -2,100 Descending Cleveland Center
12:45AM 41.6819 -82.4569 308° West 394 453 18,600 -2,640 Descending Cleveland Center
12:46AM 41.7164 -82.5136 309° West 374 430 17,100 -2,520 Descending Cleveland Center
12:46AM 41.7447 -82.5647 307° West 384 442 16,100 -2,280 Descending Cleveland Center
12:47AM 41.7792 -82.6186 311° West 364 419 14,800 -2,340 Descending Cleveland Center
12:47AM 41.8075 -82.6697 307° West 372 428 13,800 -2,040 Descending Cleveland Center
12:48AM 41.8419 -82.7208 312° West 345 397 12,800 -1,920 Descending Cleveland Center
12:48AM 41.8769 -82.7556 324° Northwest 354 407 11,900 -1,800 Descending Cleveland Center
12:49AM 41.9197 -82.7961 325° Northwest 333 383 11,000 -840 Descending Cleveland Center
12:49AM 41.9525 -82.8308 322° Northwest 343 395 11,100 -540 Climbing Cleveland Center
12:50AM 41.9975 -82.8714 326° Northwest 334 384 10,500 -900 Descending Cleveland Center
12:50AM 42.0261 -82.9006 323° Northwest 331 381 10,200 -720 Descending Cleveland Center
12:51AM 42.0608 -82.9325 326° Northwest 273 314 9,800 -900 Descending Cleveland Center
12:51AM 42.0875 -82.9586 324° Northwest 302 348 9,300 -1,500 Descending Cleveland Center
12:52AM 42.1222 -82.9908 325° Northwest 257 296 8,300 -1,620 Descending Cleveland Center
12:52AM 42.1447 -83.0139 323° Northwest 271 312 7,700 -1,920 Descending Cleveland Center
12:53AM 42.1794 -83.0433 328° Northwest 250 288 6,400 -1,920 Descending Cleveland Center
12:53AM 42.2000 -83.0636 324° Northwest 251 289 5,800 -1,980 Descending Cleveland Center
12:54AM 42.2306 -83.0958 322° Northwest 228 262 4,400 -1,740 Descending Cleveland Center
12:54AM 42.2508 -83.1161 323° Northwest 241 277 4,100 -540 Descending Cleveland Center
12:55AM 42.2694 -83.1317 328° Northwest 215 247 4,000 -660 Descending FAA TRACON SMA TRACON (SMA)
12:55AM 42.2850 -83.1508 318° Northwest 211 243 3,700 -1,200 Descending FAA TRACON SMA TRACON (SMA)
12:55AM 42.2964 -83.1681 312° West 201 231 3,200 -1,080 Descending FAA TRACON SMA TRACON (SMA)
12:56AM 42.3100 -83.1894 311° West 198 228 3,000 -600 Descending FAA TRACON SMA TRACON (SMA)
12:56AM 42.3142 -83.2094 286° West 179 206 2,800 -600 Descending FAA TRACON SMA TRACON (SMA)
12:56AM 42.3114 -83.2333 261° West 174 200 2,600 -300 Descending FAA TRACON SMA TRACON (SMA)
12:57AM 42.3089 -83.2478 257° West 168 193 2,600 -180 Level FAA TRACON SMA TRACON (SMA)
12:57AM 42.3014 -83.2719 247° West 157 181 2,500 -480 Descending FAA TRACON SMA TRACON (SMA)
12:57AM 42.2919 -83.2806 214° Southwest 146 168 2,300 -780 Descending FAA TRACON SMA TRACON (SMA)
12:58AM 42.2800 -83.2897 210° Southwest 130 150 2,000 -780 Descending FAA TRACON SMA TRACON (SMA)
12:58AM 42.2689 -83.2981 209° Southwest 124 143 1,800 -600 Descending FAA TRACON SMA TRACON (SMA)